createdAt,value
2022-10-01T00:04:00.402Z,76.5
2022-10-01T00:14:00.457Z,76
2022-10-01T00:24:00.383Z,76.5
2022-10-01T00:34:00.459Z,76
2022-10-01T00:44:00.381Z,76.5
2022-10-01T00:54:00.458Z,76.5
2022-10-01T01:04:00.568Z,76
2022-10-01T01:14:00.443Z,76
2022-10-01T01:24:00.597Z,76
2022-10-01T01:34:00.465Z,76
2022-10-01T01:44:00.592Z,76
2022-10-01T01:54:00.447Z,76
2022-10-01T02:04:00.579Z,76
2022-10-01T02:14:00.450Z,76
2022-10-01T02:24:00.573Z,76
2022-10-01T02:34:00.445Z,75.5
2022-10-01T02:44:00.566Z,75.5
2022-10-01T02:54:00.635Z,75.5
2022-10-01T03:04:00.555Z,75.5
2022-10-01T03:14:00.641Z,75.5
2022-10-01T03:24:00.562Z,75.5
2022-10-01T03:34:00.625Z,75.5
2022-10-01T03:44:00.891Z,75.5
2022-10-01T03:54:00.631Z,75.5
2022-10-01T04:04:00.747Z,75.5
2022-10-01T04:14:00.627Z,75.5
2022-10-01T04:24:00.738Z,75.5
2022-10-01T04:34:00.612Z,75.5
2022-10-01T04:44:00.803Z,75.5
2022-10-01T04:54:00.617Z,75.5
2022-10-01T05:04:00.729Z,75
2022-10-01T05:14:00.609Z,74
2022-10-01T05:24:00.730Z,62.5
2022-10-01T05:34:00.822Z,64
2022-10-01T05:44:00.770Z,66
2022-10-01T05:54:00.806Z,68.5
2022-10-01T06:04:00.729Z,70
2022-10-01T06:14:00.789Z,71
2022-10-01T06:24:00.709Z,71.5
2022-10-01T06:34:00.793Z,72.5
2022-10-01T06:44:00.916Z,60.5
2022-10-01T06:54:00.789Z,61.5
2022-10-01T07:04:00.900Z,64.5
2022-10-01T07:14:00.774Z,66.5
2022-10-01T07:24:00.901Z,68
2022-10-01T07:34:00.783Z,69
2022-10-01T07:44:00.932Z,70.5
2022-10-01T07:54:00.776Z,71
2022-10-01T08:04:00.891Z,71
2022-10-01T08:14:00.984Z,72
2022-10-01T08:24:00.896Z,72
2022-10-01T08:34:00.981Z,72.5
2022-10-01T08:44:00.886Z,72.5
2022-10-01T08:54:00.968Z,72
2022-10-01T09:04:00.941Z,72
2022-10-01T09:14:00.975Z,72
2022-10-01T09:24:00.893Z,71
2022-10-01T09:34:00.948Z,71.5
2022-10-01T09:44:00.932Z,70.5
2022-10-01T09:54:00.999Z,70
2022-10-01T10:04:01.200Z,69
2022-10-01T10:14:00.990Z,69
2022-10-01T10:24:01.097Z,68.5
2022-10-01T10:34:00.998Z,68
2022-10-01T10:44:01.125Z,68
2022-10-01T10:54:01.043Z,67
2022-10-01T11:04:01.122Z,66
2022-10-01T11:14:01.015Z,65
2022-10-01T11:24:01.132Z,65
2022-10-01T11:34:01.216Z,65
2022-10-01T11:44:01.136Z,62.5
2022-10-01T11:54:01.196Z,63.5
2022-10-01T12:04:01.104Z,62.5
2022-10-01T12:14:01.198Z,58.5
2022-10-01T12:24:01.114Z,56.5
2022-10-01T12:34:01.194Z,56
2022-10-01T12:44:01.090Z,53.5
2022-10-01T12:54:01.173Z,52
2022-10-01T13:04:03.462Z,51.5
2022-10-01T13:14:01.197Z,52.5
2022-10-01T13:24:01.312Z,55
2022-10-01T13:34:01.162Z,52.5
2022-10-01T13:44:01.280Z,48.5
2022-10-01T13:54:01.160Z,47.5
2022-10-01T14:04:01.310Z,47.5
2022-10-01T14:14:01.175Z,53
2022-10-01T14:24:01.276Z,53
2022-10-01T14:34:01.351Z,52.5
2022-10-01T14:44:01.281Z,55
2022-10-01T14:54:01.381Z,54
2022-10-01T15:04:01.368Z,50
2022-10-01T15:14:01.344Z,50
2022-10-01T15:24:01.258Z,50
2022-10-01T15:34:01.348Z,53
2022-10-01T15:44:01.297Z,57.5
2022-10-01T15:54:01.386Z,59.5
2022-10-01T16:04:01.483Z,59.5
2022-10-01T16:14:01.327Z,60
2022-10-01T16:24:01.468Z,60.5
2022-10-01T16:34:01.336Z,61.5
2022-10-01T16:44:01.482Z,62.5
2022-10-01T16:54:01.479Z,62.5
2022-10-01T17:04:01.469Z,62.5
2022-10-01T17:14:01.367Z,63
2022-10-01T17:24:01.486Z,63
2022-10-01T17:34:01.560Z,63.5
2022-10-01T17:44:01.603Z,64.5
2022-10-01T17:54:01.447Z,56
2022-10-01T18:04:01.568Z,53.5
2022-10-01T18:14:01.431Z,55.5
2022-10-01T18:24:04.380Z,58.5
2022-10-01T18:34:01.460Z,60.5
2022-10-01T18:44:01.572Z,62
2022-10-01T18:54:01.426Z,63
2022-10-01T19:04:01.538Z,64.5
2022-10-01T19:14:01.624Z,65
2022-10-01T19:24:01.562Z,65.5
2022-10-01T19:34:01.636Z,66
2022-10-01T19:44:01.537Z,66.5
2022-10-01T19:54:01.671Z,66.5
2022-10-01T20:04:01.586Z,66.5
2022-10-01T20:14:01.730Z,67
2022-10-01T20:24:01.920Z,67
2022-10-01T20:34:01.606Z,67
2022-10-01T20:44:01.762Z,67
2022-10-01T20:54:01.617Z,67.5
2022-10-01T21:04:01.709Z,67.5
2022-10-01T21:14:01.604Z,67.5
2022-10-01T21:24:01.732Z,68
2022-10-01T21:34:01.591Z,68
2022-10-01T21:44:01.706Z,68
2022-10-01T21:54:01.772Z,68
2022-10-01T22:04:01.716Z,68.5
2022-10-01T22:14:01.789Z,68.5
2022-10-01T22:24:01.696Z,68.5
2022-10-01T22:34:01.773Z,69
2022-10-01T22:44:01.695Z,69
2022-10-01T22:54:01.761Z,69
2022-10-01T23:04:01.898Z,69.5
2022-10-01T23:14:01.769Z,69.5
2022-10-01T23:24:01.897Z,69.5
2022-10-01T23:34:01.778Z,69.5
2022-10-01T23:44:01.894Z,69.5
2022-10-01T23:54:01.750Z,69.5
